Time,TemperatureF,DewpointF,PressureIn,WindDirection,WindDirectionDegrees,WindSpeedMPH,WindSpeedGustMPH,Humidity,HourlyPrecipIn,Conditions,Clouds,dailyrainin,SoftwareType,DateUTC
2013-06-09 06:15:00,63.8,58.2,29.98,South,170,0.0,0.0,82,0.00,,,0.00,Wunderground v.1.15,2013-06-09 11:15:00,
2013-06-09 06:25:00,64.2,58.6,29.98,SSE,160,0.0,1.0,82,0.00,,,0.00,Wunderground v.1.15,2013-06-09 11:25:00,
2013-06-09 06:30:00,64.8,58.8,29.98,SSE,153,0.0,1.0,81,0.00,,,0.00,Wunderground v.1.15,2013-06-09 11:30:00,
2013-06-09 06:40:00,65.9,59.2,29.98,SSE,159,0.0,1.0,79,0.00,,,0.00,Wunderground v.1.15,2013-06-09 11:40:00,
2013-06-09 06:45:00,66.2,59.5,29.98,SE,131,1.0,1.0,79,0.00,,,0.00,Wunderground v.1.15,2013-06-09 11:45:00,
2013-06-09 06:50:00,66.5,59.4,29.98,SW,220,1.0,1.0,78,0.00,,,0.00,Wunderground v.1.15,2013-06-09 11:50:00,
2013-06-09 07:00:00,66.8,59.4,29.97,SSW,203,1.0,1.0,77,0.00,,,0.00,Wunderground v.1.15,2013-06-09 12:00:00,
2013-06-09 07:10:00,67.7,59.9,29.97,South,187,1.0,1.0,76,0.00,,,0.00,Wunderground v.1.15,2013-06-09 12:10:00,
2013-06-09 07:20:00,68.0,59.4,29.97,SE,135,2.0,2.0,74,0.00,,,0.00,Wunderground v.1.15,2013-06-09 12:20:00,
2013-06-09 07:25:00,68.0,59.4,29.97,South,183,2.0,3.0,74,0.00,,,0.00,Wunderground v.1.15,2013-06-09 12:25:00,
2013-06-09 07:30:00,67.9,59.7,29.97,SE,138,2.0,5.0,75,0.00,,,0.00,Wunderground v.1.15,2013-06-09 12:30:00,
2013-06-09 07:40:00,68.4,59.4,29.97,SSE,163,3.0,5.0,73,0.00,,,0.00,Wunderground v.1.15,2013-06-09 12:40:00,
2013-06-09 07:50:00,68.9,59.5,29.97,SE,139,5.0,5.0,72,0.00,,,0.00,Wunderground v.1.15,2013-06-09 12:50:00,
2013-06-09 07:55:00,69.0,59.6,29.97,WSW,240,5.0,5.0,72,0.00,,,0.00,Wunderground v.1.15,2013-06-09 12:55:00,
2013-06-09 08:00:00,69.1,59.7,29.97,South,169,4.0,5.0,72,0.00,,,0.00,Wunderground v.1.15,2013-06-09 13:00:00,
2013-06-09 08:10:00,69.0,59.6,29.97,SSW,203,4.0,4.0,72,0.00,,,0.00,Wunderground v.1.15,2013-06-09 13:10:00,
2013-06-09 08:15:00,68.9,59.5,29.97,South,173,4.0,9.0,72,0.00,,,0.00,Wunderground v.1.15,2013-06-09 13:15:00,
2013-06-09 08:20:00,68.8,59.8,29.97,SSE,153,3.0,3.0,73,0.00,,,0.00,Wunderground v.1.15,2013-06-09 13:20:00,
2013-06-09 08:25:00,68.7,59.7,29.97,ESE,116,3.0,4.0,73,0.00,,,0.00,Wunderground v.1.15,2013-06-09 13:25:00,
2013-06-09 08:35:00,68.7,59.7,29.97,SSW,200,3.0,4.0,73,0.00,,,0.00,Wunderground v.1.15,2013-06-09 13:35:00,
2013-06-09 08:40:00,68.8,59.4,29.97,WSW,255,4.0,5.0,72,0.00,,,0.00,Wunderground v.1.15,2013-06-09 13:40:00,
2013-06-09 08:50:00,69.1,60.1,29.97,South,187,4.0,7.0,73,0.00,,,0.00,Wunderground v.1.15,2013-06-09 13:50:00,
2013-06-09 09:00:00,69.8,60.4,29.97,SSE,167,4.0,4.0,72,0.00,,,0.00,Wunderground v.1.15,2013-06-09 14:00:00,
2013-06-09 09:10:00,70.0,60.6,29.97,SE,145,4.0,4.0,72,0.00,,,0.00,Wunderground v.1.15,2013-06-09 14:10:00,
2013-06-09 09:15:00,70.5,61.0,29.96,South,173,4.0,7.0,72,0.00,,,0.00,Wunderground v.1.15,2013-06-09 14:15:00,
2013-06-09 09:20:00,71.3,60.6,29.96,SSE,157,5.0,11.0,69,0.00,,,0.00,Wunderground v.1.15,2013-06-09 14:20:00,
2013-06-09 09:30:00,72.9,60.4,29.96,South,186,6.0,6.0,65,0.00,,,0.00,Wunderground v.1.15,2013-06-09 14:30:00,
2013-06-09 09:40:00,73.5,60.6,29.96,SSW,203,7.0,11.0,64,0.00,,,0.00,Wunderground v.1.15,2013-06-09 14:40:00,
2013-06-09 09:50:00,73.5,60.6,29.95,South,180,7.0,7.0,64,0.00,,,0.00,Wunderground v.1.15,2013-06-09 14:50:00,
2013-06-09 10:00:00,73.8,61.3,29.95,SSE,153,7.0,7.0,65,0.00,,,0.00,Wunderground v.1.15,2013-06-09 15:00:00,
2013-06-09 10:10:00,74.3,60.9,29.95,SSW,197,6.0,6.0,63,0.00,,,0.00,Wunderground v.1.15,2013-06-09 15:10:00,
2013-06-09 10:20:00,74.8,61.8,29.95,SW,224,6.0,6.0,64,0.00,,,0.00,Wunderground v.1.15,2013-06-09 15:20:00,
2013-06-09 10:25:00,74.7,60.8,29.95,SSE,160,6.0,7.0,62,0.00,,,0.00,Wunderground v.1.15,2013-06-09 15:25:00,
2013-06-09 10:35:00,75.3,60.9,29.94,SSE,166,6.0,7.0,61,0.00,,,0.00,Wunderground v.1.15,2013-06-09 15:35:00,
2013-06-09 10:40:00,75.6,60.7,29.95,SSW,210,5.0,5.0,60,0.00,,,0.00,Wunderground v.1.15,2013-06-09 15:40:00,
2013-06-09 10:50:00,76.1,60.2,29.94,South,176,7.0,8.0,58,0.00,,,0.00,Wunderground v.1.15,2013-06-09 15:50:00,
2013-06-09 11:00:00,75.7,60.4,29.94,SSE,149,6.0,7.0,59,0.00,,,0.00,Wunderground v.1.15,2013-06-09 16:00:00,
2013-06-09 11:10:00,75.4,60.5,29.94,South,185,6.0,6.0,60,0.00,,,0.00,Wunderground v.1.15,2013-06-09 16:10:00,
2013-06-09 11:15:00,75.5,60.2,29.94,South,179,6.0,9.0,59,0.00,,,0.00,Wunderground v.1.15,2013-06-09 16:15:00,
2013-06-09 11:20:00,75.6,59.8,29.94,ESE,102,7.0,7.0,58,0.00,,,0.00,Wunderground v.1.15,2013-06-09 16:20:00,
2013-06-09 11:30:00,75.4,60.5,29.93,South,176,7.0,7.0,60,0.00,,,0.00,Wunderground v.1.15,2013-06-09 16:30:00,
2013-06-09 11:40:00,76.2,60.3,29.93,SSW,210,5.0,5.0,58,0.00,,,0.00,Wunderground v.1.15,2013-06-09 16:40:00,
2013-06-09 11:50:00,77.4,60.5,29.93,SW,226,6.0,7.0,56,0.00,,,0.00,Wunderground v.1.15,2013-06-09 16:50:00,
2013-06-09 11:55:00,77.4,61.5,29.93,SSE,158,6.0,7.0,58,0.00,,,0.00,Wunderground v.1.15,2013-06-09 16:55:00,
2013-06-09 12:00:00,77.6,61.2,29.93,SSW,212,6.0,6.0,57,0.00,,,0.00,Wunderground v.1.15,2013-06-09 17:00:00,
2013-06-09 12:10:00,77.8,61.3,29.92,SSW,207,6.0,6.0,57,0.00,,,0.00,Wunderground v.1.15,2013-06-09 17:10:00,
2013-06-09 12:15:00,77.7,60.8,29.92,SW,217,7.0,7.0,56,0.00,,,0.00,Wunderground v.1.15,2013-06-09 17:15:00,
2013-06-09 12:25:00,77.9,61.9,29.92,SW,224,6.0,10.0,58,0.00,,,0.00,Wunderground v.1.15,2013-06-09 17:25:00,
2013-06-09 12:35:00,78.3,62.3,29.92,SSE,160,5.0,6.0,58,0.00,,,0.00,Wunderground v.1.15,2013-06-09 17:35:00,
2013-06-09 12:45:00,78.9,62.9,29.91,SW,226,4.0,6.0,58,0.00,,,0.00,Wunderground v.1.15,2013-06-09 17:45:00,
2013-06-09 12:50:00,78.9,61.4,29.91,WSW,240,4.0,9.0,55,0.00,,,0.00,Wunderground v.1.15,2013-06-09 17:50:00,
2013-06-09 12:55:00,78.9,61.4,29.91,SSW,210,5.0,9.0,55,0.00,,,0.00,Wunderground v.1.15,2013-06-09 17:55:00,
2013-06-09 13:00:00,79.0,60.9,29.90,South,186,6.0,6.0,54,0.00,,,0.00,Wunderground v.1.15,2013-06-09 18:00:00,
2013-06-09 13:10:00,79.3,61.2,29.90,SW,218,4.0,5.0,54,0.00,,,0.00,Wunderground v.1.15,2013-06-09 18:10:00,
2013-06-09 13:20:00,79.3,61.2,29.90,SSW,210,7.0,8.0,54,0.00,,,0.00,Wunderground v.1.15,2013-06-09 18:20:00,
2013-06-09 13:30:00,79.5,61.9,29.89,SSE,167,7.0,7.0,55,0.00,,,0.00,Wunderground v.1.15,2013-06-09 18:30:00,
2013-06-09 13:40:00,80.3,63.2,29.89,SSW,212,6.0,6.0,56,0.00,,,0.00,Wunderground v.1.15,2013-06-09 18:40:00,
2013-06-09 13:45:00,81.2,62.4,29.88,WSW,243,5.0,6.0,53,0.00,,,0.00,Wunderground v.1.15,2013-06-09 18:45:00,
2013-06-09 13:55:00,81.9,60.9,29.88,SSW,195,6.0,6.0,49,0.00,,,0.00,Wunderground v.1.15,2013-06-09 18:55:00,
2013-06-09 14:00:00,80.9,61.6,29.87,South,184,6.0,6.0,52,0.00,,,0.00,Wunderground v.1.15,2013-06-09 19:00:00,
2013-06-09 14:10:00,79.3,60.7,29.87,West,281,5.0,5.0,53,0.00,,,0.00,Wunderground v.1.15,2013-06-09 19:10:00,
2013-06-09 14:15:00,78.4,62.9,29.88,SSW,197,5.0,6.0,59,0.00,,,0.00,Wunderground v.1.15,2013-06-09 19:15:00,
2013-06-09 14:25:00,71.8,64.2,29.88,SW,236,5.0,5.0,77,0.08,,,0.02,Wunderground v.1.15,2013-06-09 19:25:00,
2013-06-09 14:35:00,70.2,64.8,29.87,SE,129,2.0,4.0,83,0.00,,,0.02,Wunderground v.1.15,2013-06-09 19:35:00,
2013-06-09 14:45:00,70.1,64.3,29.86,South,173,1.0,2.0,82,0.00,,,0.02,Wunderground v.1.15,2013-06-09 19:45:00,
2013-06-09 14:55:00,69.2,64.5,29.90,SW,234,3.0,11.0,85,6.55,,,0.14,Wunderground v.1.15,2013-06-09 19:55:00,
2013-06-09 15:00:00,67.5,64.5,29.90,SSW,192,7.0,12.0,90,1.65,,,0.31,Wunderground v.1.15,2013-06-09 20:00:00,
2013-06-09 15:10:00,66.5,64.1,29.91,WSW,238,8.0,8.0,92,0.39,,,0.40,Wunderground v.1.15,2013-06-09 20:10:00,
2013-06-09 15:15:00,66.3,64.2,29.90,SW,232,7.0,12.0,93,0.22,,,0.44,Wunderground v.1.15,2013-06-09 20:15:00,
2013-06-09 15:20:00,66.3,64.2,29.89,South,185,7.0,7.0,93,0.16,,,0.46,Wunderground v.1.15,2013-06-09 20:20:00,
2013-06-09 15:25:00,66.4,64.3,29.89,SSW,207,7.0,9.0,93,0.10,,,0.46,Wunderground v.1.15,2013-06-09 20:25:00,
2013-06-09 15:35:00,66.6,64.8,29.89,SW,215,5.0,6.0,94,0.04,,,0.46,Wunderground v.1.15,2013-06-09 20:35:00,
2013-06-09 15:45:00,66.8,65.0,29.87,WSW,253,2.0,4.0,94,0.00,,,0.47,Wunderground v.1.15,2013-06-09 20:45:00,
2013-06-09 15:55:00,67.3,65.5,29.87,WSW,240,1.0,1.0,94,0.00,,,0.47,Wunderground v.1.15,2013-06-09 20:55:00,
2013-06-09 16:00:00,67.7,65.6,29.88,SSE,160,1.0,1.0,93,0.00,,,0.47,Wunderground v.1.15,2013-06-09 21:00:00,
2013-06-09 16:10:00,68.1,65.7,29.87,SW,218,1.0,1.0,92,0.00,,,0.47,Wunderground v.1.15,2013-06-09 21:10:00,
2013-06-09 16:20:00,68.3,65.6,29.87,West,262,0.0,0.0,91,0.00,,,0.47,Wunderground v.1.15,2013-06-09 21:20:00,
2013-06-09 16:30:00,68.3,65.6,29.87,West,274,1.0,1.0,91,0.00,,,0.47,Wunderground v.1.15,2013-06-09 21:30:00,
2013-06-09 16:40:00,68.4,66.0,29.87,South,188,1.0,1.0,92,0.00,,,0.47,Wunderground v.1.15,2013-06-09 21:40:00,
2013-06-09 16:50:00,69.9,66.2,29.87,West,278,2.0,2.0,88,0.00,,,0.47,Wunderground v.1.15,2013-06-09 21:50:00,
2013-06-09 16:55:00,70.3,66.6,29.86,SW,218,1.0,3.0,88,0.00,,,0.47,Wunderground v.1.15,2013-06-09 21:55:00,
2013-06-09 17:00:00,70.1,65.7,29.87,South,174,1.0,1.0,86,0.00,,,0.47,Wunderground v.1.15,2013-06-09 22:00:00,
2013-06-09 17:10:00,69.9,65.5,29.86,South,169,2.0,2.0,86,0.00,,,0.47,Wunderground v.1.15,2013-06-09 22:10:00,
2013-06-09 17:15:00,69.8,65.4,29.86,SE,139,3.0,3.0,86,0.00,,,0.47,Wunderground v.1.15,2013-06-09 22:15:00,
2013-06-09 17:25:00,69.5,65.5,29.86,SE,141,3.0,5.0,87,0.00,,,0.47,Wunderground v.1.15,2013-06-09 22:25:00,
2013-06-09 17:30:00,69.4,65.4,29.86,SSE,156,3.0,4.0,87,0.00,,,0.47,Wunderground v.1.15,2013-06-09 22:30:00,
2013-06-09 17:40:00,69.4,65.0,29.85,SSW,195,4.0,4.0,86,0.00,,,0.47,Wunderground v.1.15,2013-06-09 22:40:00,
2013-06-09 17:45:00,69.4,64.7,29.86,SSE,160,4.0,5.0,85,0.00,,,0.47,Wunderground v.1.15,2013-06-09 22:45:00,
2013-06-09 17:55:00,69.4,65.0,29.85,SSE,158,3.0,5.0,86,0.00,,,0.47,Wunderground v.1.15,2013-06-09 22:55:00,
2013-06-09 18:00:00,69.4,65.4,29.85,WSW,240,2.0,2.0,87,0.00,,,0.47,Wunderground v.1.15,2013-06-09 23:00:00,
2013-06-09 18:10:00,69.5,65.5,29.85,West,266,1.0,1.0,87,0.00,,,0.47,Wunderground v.1.15,2013-06-09 23:10:00,
2013-06-09 18:15:00,69.7,65.3,29.85,South,184,2.0,3.0,86,0.00,,,0.47,Wunderground v.1.15,2013-06-09 23:15:00,
2013-06-09 18:25:00,69.9,65.5,29.85,South,173,1.0,2.0,86,0.00,,,0.47,Wunderground v.1.15,2013-06-09 23:25:00,
2013-06-09 18:30:00,70.0,65.6,29.85,WSW,242,1.0,1.0,86,0.00,,,0.47,Wunderground v.1.15,2013-06-09 23:30:00,
2013-06-09 18:35:00,70.1,65.0,29.85,South,172,2.0,2.0,84,0.00,,,0.47,Wunderground v.1.15,2013-06-09 23:35:00,
2013-06-09 18:40:00,70.1,65.0,29.85,SE,142,2.0,3.0,84,0.00,,,0.47,Wunderground v.1.15,2013-06-09 23:40:00,
2013-06-09 18:50:00,69.9,64.5,29.85,South,180,4.0,4.0,83,0.00,,,0.47,Wunderground v.1.15,2013-06-09 23:50:00,
2013-06-09 19:00:00,69.7,64.3,29.87,SSW,204,4.0,4.0,83,0.00,,,0.47,Wunderground v.1.15,2013-06-10 00:00:00,
2013-06-09 19:10:00,69.4,64.0,29.87,WSW,253,5.0,5.0,83,0.00,,,0.47,Wunderground v.1.15,2013-06-10 00:10:00,
2013-06-09 19:15:00,69.2,64.5,29.86,South,177,4.0,5.0,85,0.00,,,0.47,Wunderground v.1.15,2013-06-10 00:15:00,
2013-06-09 19:25:00,69.3,63.9,29.86,SW,224,4.0,5.0,83,0.00,,,0.47,Wunderground v.1.15,2013-06-10 00:25:00,
2013-06-09 19:35:00,69.0,62.6,29.86,SW,215,5.0,6.0,80,0.00,,,0.47,Wunderground v.1.15,2013-06-10 00:35:00,
2013-06-09 19:40:00,68.8,61.7,29.86,South,188,6.0,6.0,78,0.00,,,0.47,Wunderground v.1.15,2013-06-10 00:40:00,
2013-06-09 19:50:00,68.3,61.9,29.86,South,191,5.0,5.0,80,0.00,,,0.47,Wunderground v.1.15,2013-06-10 00:50:00,
2013-06-09 20:00:00,67.7,62.0,29.86,SSW,212,3.0,3.0,82,0.00,,,0.47,Wunderground v.1.15,2013-06-10 01:00:00,
2013-06-09 20:10:00,67.1,62.1,29.86,SSE,162,2.0,4.0,84,0.00,,,0.47,Wunderground v.1.15,2013-06-10 01:10:00,
2013-06-09 20:15:00,66.9,61.9,29.86,South,190,2.0,4.0,84,0.00,,,0.47,Wunderground v.1.15,2013-06-10 01:15:00,
2013-06-09 20:25:00,66.5,61.8,29.85,SSW,204,2.0,3.0,85,0.00,,,0.47,Wunderground v.1.15,2013-06-10 01:25:00,
2013-06-09 20:35:00,66.0,62.0,29.85,South,188,2.0,3.0,87,0.00,,,0.47,Wunderground v.1.15,2013-06-10 01:35:00,
2013-06-09 20:40:00,65.6,61.6,29.85,South,186,1.0,2.0,87,0.00,,,0.47,Wunderground v.1.15,2013-06-10 01:40:00,
2013-06-09 20:50:00,65.2,61.6,29.86,South,177,1.0,1.0,88,0.00,,,0.47,Wunderground v.1.15,2013-06-10 01:50:00,
2013-06-09 21:00:00,64.7,61.4,29.85,SSE,150,0.0,0.0,89,0.00,,,0.47,Wunderground v.1.15,2013-06-10 02:00:00,
2013-06-09 21:10:00,64.4,61.4,29.85,South,185,1.0,2.0,90,0.00,,,0.47,Wunderground v.1.15,2013-06-10 02:10:00,
2013-06-09 21:20:00,64.1,61.1,29.86,SSW,204,2.0,2.0,90,0.00,,,0.47,Wunderground v.1.15,2013-06-10 02:20:00,